Terminal Aerodrome Forecast
Issued by NWS Sterling, VA

Current Version | Previous Version | Graphics & Text | Print | Product List | Glossary On
Versions: 1 2 3 4 5 6 7 8 9 10 11 12 13 14 15 16 17 18 19 20
000
FTUS41 KLWX 212300 RRA
TAFIAD
TAF
KIAD 212349Z 2200/2306 17005KT P6SM FEW250
     FM221500 20006KT P6SM BKN090
     FM221800 24008KT P6SM -SHRA BKN050
     FM222000 26010KT 5SM -SHRA BKN050
     FM222200 28012KT P6SM BKN130=

USA.gov is the U.S. government's official web portal to all federal, state and local government web resources and services.